sensor_id;sensor_type;location;lat;lon;timestamp;P1;durP1;ratioP1;P2;durP2;ratioP2
24301;SDS011;12421;49.732;20.078;2022-08-14T00:04:15;8.28;;;6.97;;
24301;SDS011;12421;49.732;20.078;2022-08-14T00:14:17;8.33;;;7.42;;
24301;SDS011;12421;49.732;20.078;2022-08-14T00:24:21;8.68;;;7.60;;
24301;SDS011;12421;49.732;20.078;2022-08-14T00:34:24;8.23;;;6.70;;
24301;SDS011;12421;49.732;20.078;2022-08-14T00:44:31;14.23;;;7.50;;
24301;SDS011;12421;49.732;20.078;2022-08-14T00:54:33;8.83;;;6.90;;
24301;SDS011;12421;49.732;20.078;2022-08-14T01:04:38;7.90;;;7.08;;
24301;SDS011;12421;49.732;20.078;2022-08-14T01:14:41;7.90;;;7.08;;
24301;SDS011;12421;49.732;20.078;2022-08-14T01:24:43;9.95;;;8.25;;
24301;SDS011;12421;49.732;20.078;2022-08-14T01:34:49;10.30;;;9.20;;
24301;SDS011;12421;49.732;20.078;2022-08-14T01:44:55;11.45;;;9.00;;
24301;SDS011;12421;49.732;20.078;2022-08-14T01:54:58;13.28;;;9.15;;
24301;SDS011;12421;49.732;20.078;2022-08-14T02:05:01;11.22;;;9.93;;
24301;SDS011;12421;49.732;20.078;2022-08-14T02:15:04;12.40;;;9.93;;
24301;SDS011;12421;49.732;20.078;2022-08-14T02:25:09;13.48;;;10.30;;
24301;SDS011;12421;49.732;20.078;2022-08-14T02:35:11;14.30;;;10.32;;
24301;SDS011;12421;49.732;20.078;2022-08-14T02:55:28;12.25;;;10.03;;
24301;SDS011;12421;49.732;20.078;2022-08-14T03:05:32;13.45;;;9.60;;
24301;SDS011;12421;49.732;20.078;2022-08-14T03:15:34;11.65;;;9.05;;
24301;SDS011;12421;49.732;20.078;2022-08-14T03:25:53;12.05;;;8.90;;
24301;SDS011;12421;49.732;20.078;2022-08-14T03:35:55;14.83;;;9.55;;
24301;SDS011;12421;49.732;20.078;2022-08-14T03:45:57;13.03;;;9.23;;
24301;SDS011;12421;49.732;20.078;2022-08-14T03:56:00;9.93;;;8.15;;
24301;SDS011;12421;49.732;20.078;2022-08-14T04:06:02;11.10;;;7.40;;
24301;SDS011;12421;49.732;20.078;2022-08-14T04:16:05;11.55;;;7.70;;
24301;SDS011;12421;49.732;20.078;2022-08-14T04:26:17;8.35;;;7.25;;
24301;SDS011;12421;49.732;20.078;2022-08-14T04:36:22;8.73;;;7.83;;
24301;SDS011;12421;49.732;20.078;2022-08-14T04:46:24;8.80;;;6.72;;
24301;SDS011;12421;49.732;20.078;2022-08-14T04:56:28;8.85;;;6.60;;
24301;SDS011;12421;49.732;20.078;2022-08-14T05:06:30;6.50;;;3.70;;
24301;SDS011;12421;49.732;20.078;2022-08-14T05:16:32;5.15;;;3.60;;
24301;SDS011;12421;49.732;20.078;2022-08-14T05:26:34;3.02;;;1.82;;
24301;SDS011;12421;49.732;20.078;2022-08-14T05:36:38;4.37;;;2.02;;
24301;SDS011;12421;49.732;20.078;2022-08-14T05:46:40;2.72;;;2.25;;
24301;SDS011;12421;49.732;20.078;2022-08-14T05:56:42;3.30;;;2.27;;
24301;SDS011;12421;49.732;20.078;2022-08-14T06:06:46;2.90;;;2.30;;
24301;SDS011;12421;49.732;20.078;2022-08-14T06:16:48;2.58;;;1.60;;
24301;SDS011;12421;49.732;20.078;2022-08-14T06:26:50;2.47;;;1.20;;
24301;SDS011;12421;49.732;20.078;2022-08-14T06:36:52;1.47;;;1.00;;
24301;SDS011;12421;49.732;20.078;2022-08-14T06:46:56;1.32;;;0.80;;
24301;SDS011;12421;49.732;20.078;2022-08-14T06:56:58;1.80;;;1.00;;
24301;SDS011;12421;49.732;20.078;2022-08-14T07:07:00;3.15;;;1.25;;
24301;SDS011;12421;49.732;20.078;2022-08-14T07:17:02;1.77;;;0.70;;
24301;SDS011;12421;49.732;20.078;2022-08-14T07:27:04;1.43;;;0.70;;
24301;SDS011;12421;49.732;20.078;2022-08-14T07:37:12;2.77;;;0.90;;
24301;SDS011;12421;49.732;20.078;2022-08-14T07:47:14;3.55;;;0.80;;
24301;SDS011;12421;49.732;20.078;2022-08-14T07:57:16;1.45;;;0.70;;
24301;SDS011;12421;49.732;20.078;2022-08-14T08:07:19;1.43;;;0.60;;
24301;SDS011;12421;49.732;20.078;2022-08-14T08:17:22;0.82;;;0.50;;
24301;SDS011;12421;49.732;20.078;2022-08-14T08:27:24;1.10;;;0.60;;
24301;SDS011;12421;49.732;20.078;2022-08-14T08:37:27;4.00;;;0.80;;
24301;SDS011;12421;49.732;20.078;2022-08-14T08:47:36;1.27;;;0.50;;
24301;SDS011;12421;49.732;20.078;2022-08-14T08:57:41;1.10;;;0.60;;
24301;SDS011;12421;49.732;20.078;2022-08-14T09:07:43;4.05;;;1.57;;
24301;SDS011;12421;49.732;20.078;2022-08-14T09:17:45;4.55;;;3.35;;
24301;SDS011;12421;49.732;20.078;2022-08-14T09:27:47;4.10;;;3.33;;
24301;SDS011;12421;49.732;20.078;2022-08-14T09:48:31;3.72;;;2.15;;
24301;SDS011;12421;49.732;20.078;2022-08-14T09:58:44;1.98;;;1.37;;
24301;SDS011;12421;49.732;20.078;2022-08-14T10:08:49;2.75;;;1.65;;
24301;SDS011;12421;49.732;20.078;2022-08-14T10:19:06;2.62;;;1.90;;
24301;SDS011;12421;49.732;20.078;2022-08-14T10:29:10;2.80;;;2.00;;
24301;SDS011;12421;49.732;20.078;2022-08-14T10:39:22;3.67;;;2.50;;
24301;SDS011;12421;49.732;20.078;2022-08-14T11:00:58;4.75;;;2.27;;
24301;SDS011;12421;49.732;20.078;2022-08-14T11:11:03;3.33;;;2.30;;
24301;SDS011;12421;49.732;20.078;2022-08-14T11:21:07;3.02;;;2.27;;
24301;SDS011;12421;49.732;20.078;2022-08-14T11:31:11;3.87;;;2.50;;
24301;SDS011;12421;49.732;20.078;2022-08-14T11:41:14;3.75;;;2.65;;
24301;SDS011;12421;49.732;20.078;2022-08-14T11:51:18;4.50;;;2.87;;
24301;SDS011;12421;49.732;20.078;2022-08-14T12:01:25;4.03;;;2.70;;
24301;SDS011;12421;49.732;20.078;2022-08-14T12:11:37;3.33;;;2.65;;
24301;SDS011;12421;49.732;20.078;2022-08-14T12:21:41;3.45;;;2.50;;
24301;SDS011;12421;49.732;20.078;2022-08-14T12:31:56;2.98;;;2.15;;
24301;SDS011;12421;49.732;20.078;2022-08-14T12:42:00;3.72;;;2.92;;
24301;SDS011;12421;49.732;20.078;2022-08-14T12:52:06;3.85;;;2.90;;
24301;SDS011;12421;49.732;20.078;2022-08-14T13:02:18;3.87;;;3.17;;
24301;SDS011;12421;49.732;20.078;2022-08-14T13:12:26;5.47;;;3.20;;
24301;SDS011;12421;49.732;20.078;2022-08-14T13:22:29;5.95;;;4.00;;
24301;SDS011;12421;49.732;20.078;2022-08-14T13:32:33;4.80;;;3.65;;
24301;SDS011;12421;49.732;20.078;2022-08-14T13:42:38;5.45;;;4.37;;
24301;SDS011;12421;49.732;20.078;2022-08-14T13:52:45;5.20;;;4.25;;
24301;SDS011;12421;49.732;20.078;2022-08-14T14:02:54;8.30;;;4.70;;
24301;SDS011;12421;49.732;20.078;2022-08-14T14:12:59;5.55;;;4.35;;
24301;SDS011;12421;49.732;20.078;2022-08-14T14:23:02;5.40;;;4.75;;
24301;SDS011;12421;49.732;20.078;2022-08-14T14:33:07;6.25;;;5.00;;
24301;SDS011;12421;49.732;20.078;2022-08-14T14:43:13;4.87;;;4.37;;
24301;SDS011;12421;49.732;20.078;2022-08-14T14:53:16;6.95;;;5.03;;
24301;SDS011;12421;49.732;20.078;2022-08-14T15:03:19;6.10;;;4.40;;
24301;SDS011;12421;49.732;20.078;2022-08-14T15:13:21;14.00;;;4.97;;
24301;SDS011;12421;49.732;20.078;2022-08-14T15:23:23;5.50;;;4.85;;
24301;SDS011;12421;49.732;20.078;2022-08-14T15:55:43;6.80;;;4.95;;
24301;SDS011;12421;49.732;20.078;2022-08-14T16:05:45;7.87;;;5.50;;
24301;SDS011;12421;49.732;20.078;2022-08-14T16:15:50;7.10;;;5.25;;
24301;SDS011;12421;49.732;20.078;2022-08-14T16:25:53;7.78;;;5.30;;
24301;SDS011;12421;49.732;20.078;2022-08-14T16:35:58;6.83;;;5.40;;
24301;SDS011;12421;49.732;20.078;2022-08-14T16:57:22;8.80;;;5.40;;
24301;SDS011;12421;49.732;20.078;2022-08-14T17:19:09;8.63;;;6.30;;
24301;SDS011;12421;49.732;20.078;2022-08-14T17:29:29;10.58;;;7.20;;
24301;SDS011;12421;49.732;20.078;2022-08-14T17:39:42;15.13;;;8.45;;
24301;SDS011;12421;49.732;20.078;2022-08-14T18:01:37;13.90;;;10.27;;
24301;SDS011;12421;49.732;20.078;2022-08-14T18:11:41;15.10;;;8.98;;
24301;SDS011;12421;49.732;20.078;2022-08-14T18:21:45;13.38;;;9.00;;
24301;SDS011;12421;49.732;20.078;2022-08-14T18:31:49;13.15;;;9.28;;
24301;SDS011;12421;49.732;20.078;2022-08-14T18:41:53;11.68;;;8.20;;
24301;SDS011;12421;49.732;20.078;2022-08-14T18:52:11;15.13;;;11.73;;
24301;SDS011;12421;49.732;20.078;2022-08-14T19:23:02;18.12;;;10.38;;
24301;SDS011;12421;49.732;20.078;2022-08-14T19:43:48;15.15;;;10.48;;
24301;SDS011;12421;49.732;20.078;2022-08-14T19:53:56;15.58;;;10.48;;
24301;SDS011;12421;49.732;20.078;2022-08-14T20:04:04;21.15;;;11.30;;
24301;SDS011;12421;49.732;20.078;2022-08-14T20:34:47;14.90;;;10.43;;
24301;SDS011;12421;49.732;20.078;2022-08-14T20:44:49;17.23;;;11.83;;
24301;SDS011;12421;49.732;20.078;2022-08-14T21:05:38;18.23;;;11.70;;
24301;SDS011;12421;49.732;20.078;2022-08-14T21:15:40;15.85;;;10.88;;
24301;SDS011;12421;49.732;20.078;2022-08-14T21:25:44;16.82;;;11.65;;
24301;SDS011;12421;49.732;20.078;2022-08-14T22:08:30;14.68;;;9.48;;
24301;SDS011;12421;49.732;20.078;2022-08-14T22:18:35;17.37;;;9.98;;
24301;SDS011;12421;49.732;20.078;2022-08-14T22:39:45;17.32;;;12.20;;
24301;SDS011;12421;49.732;20.078;2022-08-14T23:00:13;27.13;;;13.43;;
24301;SDS011;12421;49.732;20.078;2022-08-14T23:10:21;24.65;;;13.83;;
24301;SDS011;12421;49.732;20.078;2022-08-14T23:20:25;18.07;;;13.48;;
24301;SDS011;12421;49.732;20.078;2022-08-14T23:30:27;23.77;;;11.25;;
24301;SDS011;12421;49.732;20.078;2022-08-14T23:40:30;18.05;;;11.00;;
24301;SDS011;12421;49.732;20.078;2022-08-14T23:50:32;18.23;;;11.80;;
